Time,TemperatureF,DewpointF,PressureIn,WindDirection,WindDirectionDegrees,WindSpeedMPH,WindSpeedGustMPH,Humidity,HourlyPrecipIn,Conditions,Clouds,dailyrainin,SoftwareType,DateUTC
2013-04-06 00:01:00,43.0,40.3,29.96,NNE,22,0.0,-999.0,90,-99.99,,,0.00,Acu-Link.com,2013-04-06 04:01:00,
2013-04-06 00:31:00,41.5,39.1,29.97,WNW,292,0.0,-999.0,91,-99.99,,,0.00,Acu-Link.com,2013-04-06 04:31:00,
2013-04-06 00:46:00,41.0,38.9,29.97,NNW,337,0.0,-999.0,92,-99.99,,,0.00,Acu-Link.com,2013-04-06 04:46:00,
2013-04-06 01:01:00,40.5,38.9,29.97,SSE,157,0.0,-999.0,94,-99.99,,,0.00,Acu-Link.com,2013-04-06 05:01:00,
2013-04-06 01:16:00,39.9,38.3,29.97,NNE,22,0.0,-999.0,94,-99.99,,,0.00,Acu-Link.com,2013-04-06 05:16:00,
2013-04-06 01:31:00,39.2,37.6,29.97,NE,45,0.0,-999.0,94,-99.99,,,0.00,Acu-Link.com,2013-04-06 05:31:00,
2013-04-06 01:46:00,38.8,37.5,29.98,ENE,67,0.0,-999.0,95,-99.99,,,0.00,Acu-Link.com,2013-04-06 05:46:00,
2013-04-06 02:02:00,38.1,36.5,29.98,ENE,67,0.0,-999.0,94,-99.99,,,0.00,Acu-Link.com,2013-04-06 06:02:00,
2013-04-06 02:17:00,37.6,36.3,29.98,NE,45,0.0,-999.0,95,-99.99,,,0.00,Acu-Link.com,2013-04-06 06:17:00,
2013-04-06 02:32:00,37.2,35.9,29.99,NNE,22,0.0,-999.0,95,-99.99,,,0.00,Acu-Link.com,2013-04-06 06:32:00,
2013-04-06 02:47:00,36.5,35.2,29.98,West,270,0.0,-999.0,95,-99.99,,,0.00,Acu-Link.com,2013-04-06 06:47:00,
2013-04-06 03:17:00,36.0,35.0,29.98,SSW,202,0.0,-999.0,96,-99.99,,,0.00,Acu-Link.com,2013-04-06 07:17:00,
2013-04-06 03:32:00,35.4,34.4,29.99,East,90,0.0,-999.0,96,-99.99,,,0.00,Acu-Link.com,2013-04-06 07:32:00,
2013-04-06 03:47:00,34.9,33.9,29.99,NW,315,0.0,-999.0,96,-99.99,,,0.00,Acu-Link.com,2013-04-06 07:47:00,
2013-04-06 04:03:00,34.7,33.7,29.98,West,270,0.0,-999.0,96,-99.99,,,0.00,Acu-Link.com,2013-04-06 08:03:00,
2013-04-06 04:18:00,34.5,33.5,29.99,NW,315,0.0,-999.0,96,-99.99,,,0.00,Acu-Link.com,2013-04-06 08:18:00,
2013-04-06 04:33:00,34.2,33.2,29.98,NE,45,0.0,-999.0,96,-99.99,,,0.00,Acu-Link.com,2013-04-06 08:33:00,
2013-04-06 04:48:00,33.8,32.8,29.99,SSW,202,0.0,-999.0,96,-99.99,,,0.00,Acu-Link.com,2013-04-06 08:48:00,
2013-04-06 05:19:00,32.9,31.9,30.00,WSW,247,0.0,-999.0,96,-99.99,,,0.00,Acu-Link.com,2013-04-06 09:19:00,
2013-04-06 05:34:00,32.5,31.5,30.00,WSW,247,0.0,-999.0,96,-99.99,,,0.00,Acu-Link.com,2013-04-06 09:34:00,
2013-04-06 05:49:00,32.4,31.4,30.01,WSW,247,0.0,-999.0,96,-99.99,,,0.00,Acu-Link.com,2013-04-06 09:49:00,
2013-04-06 06:04:00,32.2,31.2,30.02,WSW,247,0.0,-999.0,96,-99.99,,,0.00,Acu-Link.com,2013-04-06 10:04:00,
2013-04-06 06:19:00,31.8,30.8,30.02,WNW,292,0.0,-999.0,96,-99.99,,,0.00,Acu-Link.com,2013-04-06 10:19:00,
2013-04-06 06:49:00,31.8,30.8,30.05,NNW,337,0.0,-999.0,96,-99.99,,,0.00,Acu-Link.com,2013-04-06 10:49:00,
2013-04-06 07:19:00,31.8,31.0,30.07,NNW,337,0.0,-999.0,97,-99.99,,,0.00,Acu-Link.com,2013-04-06 11:19:00,
2013-04-06 07:35:00,31.8,31.0,30.07,NW,315,0.0,-999.0,97,-99.99,,,0.00,Acu-Link.com,2013-04-06 11:35:00,
2013-04-06 07:50:00,35.4,34.9,30.08,ESE,112,0.0,-999.0,98,-99.99,,,0.00,Acu-Link.com,2013-04-06 11:50:00,
2013-04-06 08:05:00,39.9,39.4,30.08,East,90,0.0,-999.0,98,-99.99,,,0.00,Acu-Link.com,2013-04-06 12:05:00,
2013-04-06 08:20:00,44.2,43.7,30.09,ESE,112,0.0,-999.0,98,-99.99,,,0.00,Acu-Link.com,2013-04-06 12:20:00,
2013-04-06 08:35:00,48.4,46.5,30.09,East,90,0.0,-999.0,93,-99.99,,,0.00,Acu-Link.com,2013-04-06 12:35:00,
2013-04-06 08:50:00,52.7,48.6,30.10,East,90,0.0,-999.0,86,-99.99,,,0.00,Acu-Link.com,2013-04-06 12:50:00,
2013-04-06 09:21:00,61.9,53.9,30.10,East,90,0.0,-999.0,75,-99.99,,,0.00,Acu-Link.com,2013-04-06 13:21:00,
2013-04-06 09:36:00,66.9,53.0,30.10,ESE,112,3.2,-999.0,61,-99.99,,,0.00,Acu-Link.com,2013-04-06 13:36:00,
2013-04-06 10:06:00,64.2,43.5,30.10,ESE,112,2.7,-999.0,47,-99.99,,,0.00,Acu-Link.com,2013-04-06 14:06:00,
2013-04-06 10:21:00,64.6,40.4,30.11,ESE,112,4.2,-999.0,41,-99.99,,,0.00,Acu-Link.com,2013-04-06 14:21:00,
2013-04-06 10:37:00,65.7,42.0,30.11,NW,315,2.2,-999.0,42,-99.99,,,0.00,Acu-Link.com,2013-04-06 14:37:00,
2013-04-06 10:52:00,66.2,41.2,30.11,ESE,112,5.3,-999.0,40,-99.99,,,0.00,Acu-Link.com,2013-04-06 14:52:00,
2013-04-06 11:07:00,66.2,41.2,30.12,SSW,202,2.2,-999.0,40,-99.99,,,0.00,Acu-Link.com,2013-04-06 15:07:00,
2013-04-06 11:22:00,68.0,43.4,30.12,NE,45,3.2,-999.0,41,-99.99,,,0.00,Acu-Link.com,2013-04-06 15:22:00,
2013-04-06 11:52:00,69.1,41.7,30.12,NNW,337,3.2,-999.0,37,-99.99,,,0.00,Acu-Link.com,2013-04-06 15:52:00,
2013-04-06 12:07:00,68.2,39.5,30.12,WNW,292,1.7,-999.0,35,-99.99,,,0.00,Acu-Link.com,2013-04-06 16:07:00,
2013-04-06 12:22:00,68.5,39.8,30.11,ENE,67,3.7,-999.0,35,-99.99,,,0.00,Acu-Link.com,2013-04-06 16:22:00,
2013-04-06 12:37:00,70.0,41.1,30.11,ESE,112,5.3,-999.0,35,-99.99,,,0.00,Acu-Link.com,2013-04-06 16:37:00,
2013-04-06 12:53:00,69.6,40.0,30.10,SSW,202,1.7,-999.0,34,-99.99,,,0.00,Acu-Link.com,2013-04-06 16:53:00,
2013-04-06 13:08:00,70.0,39.6,30.10,East,90,5.3,-999.0,33,-99.99,,,0.00,Acu-Link.com,2013-04-06 17:08:00,
2013-04-06 13:23:00,71.1,40.5,30.09,ESE,112,4.7,-999.0,33,-99.99,,,0.00,Acu-Link.com,2013-04-06 17:23:00,
2013-04-06 13:38:00,70.2,39.7,30.09,East,90,4.7,-999.0,33,-99.99,,,0.00,Acu-Link.com,2013-04-06 17:38:00,
2013-04-06 13:53:00,70.3,39.8,30.09,East,90,6.3,-999.0,33,-99.99,,,0.00,Acu-Link.com,2013-04-06 17:53:00,
2013-04-06 14:08:00,73.4,41.7,30.08,ESE,112,3.7,-999.0,32,-99.99,,,0.00,Acu-Link.com,2013-04-06 18:08:00,
2013-04-06 14:53:00,72.7,41.9,30.06,ESE,112,3.7,-999.0,33,-99.99,,,0.00,Acu-Link.com,2013-04-06 18:53:00,
2013-04-06 15:09:00,71.1,39.7,30.05,NE,45,3.2,-999.0,32,-99.99,,,0.00,Acu-Link.com,2013-04-06 19:09:00,
2013-04-06 15:24:00,71.2,40.6,30.05,SSE,157,0.0,-999.0,33,-99.99,,,0.00,Acu-Link.com,2013-04-06 19:24:00,
2013-04-06 15:39:00,71.2,41.4,30.04,ESE,112,3.2,-999.0,34,-99.99,,,0.00,Acu-Link.com,2013-04-06 19:39:00,
2013-04-06 15:54:00,71.4,39.2,30.04,West,270,2.2,-999.0,31,-99.99,,,0.00,Acu-Link.com,2013-04-06 19:54:00,
2013-04-06 16:09:00,73.2,40.7,30.03,SW,225,1.7,-999.0,31,-99.99,,,0.00,Acu-Link.com,2013-04-06 20:09:00,
2013-04-06 16:24:00,71.2,39.8,30.02,WSW,247,0.0,-999.0,32,-99.99,,,0.00,Acu-Link.com,2013-04-06 20:24:00,
2013-04-06 16:55:00,70.0,38.0,30.01,East,90,3.7,-999.0,31,-99.99,,,0.00,Acu-Link.com,2013-04-06 20:55:00,
2013-04-06 17:40:00,70.9,39.6,30.02,SE,135,2.2,-999.0,32,-99.99,,,0.00,Acu-Link.com,2013-04-06 21:40:00,
2013-04-06 17:55:00,70.9,38.7,30.02,South,180,2.7,-999.0,31,-99.99,,,0.00,Acu-Link.com,2013-04-06 21:55:00,
2013-04-06 18:10:00,70.2,38.1,30.02,SW,225,0.0,-999.0,31,-99.99,,,0.00,Acu-Link.com,2013-04-06 22:10:00,
2013-04-06 18:25:00,69.8,40.9,30.02,WSW,247,0.0,-999.0,35,-99.99,,,0.00,Acu-Link.com,2013-04-06 22:25:00,
2013-04-06 18:40:00,69.4,40.6,30.03,SSE,157,1.7,-999.0,35,-99.99,,,0.00,Acu-Link.com,2013-04-06 22:40:00,
2013-04-06 18:55:00,68.7,40.7,30.03,ESE,112,0.0,-999.0,36,-99.99,,,0.00,Acu-Link.com,2013-04-06 22:55:00,
2013-04-06 19:11:00,67.3,40.1,30.03,SE,135,2.2,-999.0,37,-99.99,,,0.00,Acu-Link.com,2013-04-06 23:11:00,
2013-04-06 19:26:00,65.8,40.2,30.03,WNW,292,0.0,-999.0,39,-99.99,,,0.00,Acu-Link.com,2013-04-06 23:26:00,
2013-04-06 19:41:00,63.9,39.7,30.03,WNW,292,0.0,-999.0,41,-99.99,,,0.00,Acu-Link.com,2013-04-06 23:41:00,
2013-04-06 19:56:00,61.3,41.4,30.03,NW,315,0.0,-999.0,48,-99.99,,,0.00,Acu-Link.com,2013-04-06 23:56:00,
2013-04-06 20:11:00,59.0,42.9,30.03,NE,45,0.0,-999.0,55,-99.99,,,0.00,Acu-Link.com,2013-04-07 00:11:00,
2013-04-06 20:42:00,54.7,42.8,30.04,NE,45,0.0,-999.0,64,-99.99,,,0.00,Acu-Link.com,2013-04-07 00:42:00,
2013-04-06 20:57:00,53.1,42.0,30.04,West,270,0.0,-999.0,66,-99.99,,,0.00,Acu-Link.com,2013-04-07 00:57:00,
2013-04-06 21:12:00,51.8,42.0,30.04,WNW,292,0.0,-999.0,69,-99.99,,,0.00,Acu-Link.com,2013-04-07 01:12:00,
2013-04-06 21:27:00,50.5,42.5,30.05,NE,45,0.0,-999.0,74,-99.99,,,0.00,Acu-Link.com,2013-04-07 01:27:00,
2013-04-06 21:42:00,49.5,42.6,30.06,WNW,292,0.0,-999.0,77,-99.99,,,0.00,Acu-Link.com,2013-04-07 01:42:00,
2013-04-06 21:57:00,48.6,42.1,30.06,NE,45,0.0,-999.0,78,-99.99,,,0.00,Acu-Link.com,2013-04-07 01:57:00,
2013-04-06 22:12:00,47.7,41.8,30.06,East,90,0.0,-999.0,80,-99.99,,,0.00,Acu-Link.com,2013-04-07 02:12:00,
2013-04-06 22:27:00,46.9,41.4,30.06,WNW,292,0.0,-999.0,81,-99.99,,,0.00,Acu-Link.com,2013-04-07 02:27:00,
2013-04-06 22:42:00,46.4,41.2,30.06,NW,315,0.0,-999.0,82,-99.99,,,0.00,Acu-Link.com,2013-04-07 02:42:00,
2013-04-06 22:58:00,45.7,40.8,30.07,NW,315,0.0,-999.0,83,-99.99,,,0.00,Acu-Link.com,2013-04-07 02:58:00,
2013-04-06 23:13:00,45.0,40.8,30.07,WNW,292,0.0,-999.0,85,-99.99,,,0.00,Acu-Link.com,2013-04-07 03:13:00,
2013-04-06 23:28:00,44.2,40.0,30.07,NNW,337,0.0,-999.0,85,-99.99,,,0.00,Acu-Link.com,2013-04-07 03:28:00,
2013-04-06 23:43:00,43.7,40.1,30.07,NNE,22,0.0,-999.0,87,-99.99,,,0.00,Acu-Link.com,2013-04-07 03:43:00,
2013-04-06 23:58:00,43.2,39.6,30.06,NE,45,0.0,-999.0,87,-99.99,,,0.00,Acu-Link.com,2013-04-07 03:58:00,